sensor_id;sensor_type;location;lat;lon;timestamp;pressure;altitude;pressure_sealevel;temperature;humidity
28004;BME280;15330;51.234;6.754;2023-04-25T00:00:45;100483.81;;;7.39;100.00
28004;BME280;15330;51.234;6.754;2023-04-25T00:03:10;100481.63;;;7.52;100.00
28004;BME280;15330;51.234;6.754;2023-04-25T00:05:36;100482.03;;;7.57;100.00
28004;BME280;15330;51.234;6.754;2023-04-25T00:08:03;100490.03;;;7.57;100.00
28004;BME280;15330;51.234;6.754;2023-04-25T00:10:28;100485.59;;;7.66;100.00
28004;BME280;15330;51.234;6.754;2023-04-25T00:12:53;100489.06;;;7.49;100.00
28004;BME280;15330;51.234;6.754;2023-04-25T00:15:19;100483.00;;;7.74;100.00
28004;BME280;15330;51.234;6.754;2023-04-25T00:17:44;100478.53;;;7.57;100.00
28004;BME280;15330;51.234;6.754;2023-04-25T00:20:11;100483.16;;;7.72;100.00
28004;BME280;15330;51.234;6.754;2023-04-25T00:22:37;100482.72;;;7.77;100.00
28004;BME280;15330;51.234;6.754;2023-04-25T00:25:04;100492.19;;;7.26;100.00
28004;BME280;15330;51.234;6.754;2023-04-25T00:27:30;100489.75;;;7.33;100.00
28004;BME280;15330;51.234;6.754;2023-04-25T00:29:55;100490.25;;;7.46;100.00
28004;BME280;15330;51.234;6.754;2023-04-25T00:32:21;100493.75;;;7.47;100.00
28004;BME280;15330;51.234;6.754;2023-04-25T00:34:46;100485.44;;;7.32;100.00
28004;BME280;15330;51.234;6.754;2023-04-25T00:37:11;100488.09;;;7.50;100.00
28004;BME280;15330;51.234;6.754;2023-04-25T00:39:37;100494.31;;;7.58;100.00
28004;BME280;15330;51.234;6.754;2023-04-25T00:42:03;100492.69;;;7.75;100.00
28004;BME280;15330;51.234;6.754;2023-04-25T00:44:29;100500.56;;;7.31;100.00
28004;BME280;15330;51.234;6.754;2023-04-25T00:46:55;100498.75;;;7.50;100.00
28004;BME280;15330;51.234;6.754;2023-04-25T00:49:21;100490.81;;;7.40;100.00
28004;BME280;15330;51.234;6.754;2023-04-25T00:51:46;100490.44;;;7.70;100.00
28004;BME280;15330;51.234;6.754;2023-04-25T00:54:12;100492.28;;;7.52;100.00
28004;BME280;15330;51.234;6.754;2023-04-25T00:56:38;100496.53;;;7.63;100.00
28004;BME280;15330;51.234;6.754;2023-04-25T00:59:03;100487.03;;;7.60;100.00
28004;BME280;15330;51.234;6.754;2023-04-25T01:01:30;100489.56;;;7.62;100.00
28004;BME280;15330;51.234;6.754;2023-04-25T01:03:58;100490.66;;;7.24;100.00
28004;BME280;15330;51.234;6.754;2023-04-25T01:06:23;100488.50;;;7.37;100.00
28004;BME280;15330;51.234;6.754;2023-04-25T01:08:49;100486.81;;;7.36;100.00
28004;BME280;15330;51.234;6.754;2023-04-25T01:11:16;100495.22;;;7.31;100.00
28004;BME280;15330;51.234;6.754;2023-04-25T01:13:41;100492.66;;;7.40;100.00
28004;BME280;15330;51.234;6.754;2023-04-25T01:16:07;100499.13;;;7.37;100.00
28004;BME280;15330;51.234;6.754;2023-04-25T01:18:33;100496.06;;;7.50;100.00
28004;BME280;15330;51.234;6.754;2023-04-25T01:21:09;100494.88;;;7.44;100.00
28004;BME280;15330;51.234;6.754;2023-04-25T01:23:35;100495.84;;;7.43;100.00
28004;BME280;15330;51.234;6.754;2023-04-25T01:26:01;100491.81;;;7.39;100.00
28004;BME280;15330;51.234;6.754;2023-04-25T01:28:28;100492.44;;;7.33;100.00
28004;BME280;15330;51.234;6.754;2023-04-25T01:30:54;100488.53;;;7.27;100.00
28004;BME280;15330;51.234;6.754;2023-04-25T01:33:21;100491.72;;;7.31;100.00
28004;BME280;15330;51.234;6.754;2023-04-25T01:35:46;100489.22;;;7.29;100.00
28004;BME280;15330;51.234;6.754;2023-04-25T01:38:13;100497.25;;;7.20;100.00
28004;BME280;15330;51.234;6.754;2023-04-25T01:40:40;100499.41;;;7.16;100.00
28004;BME280;15330;51.234;6.754;2023-04-25T01:43:06;100499.13;;;7.37;100.00
28004;BME280;15330;51.234;6.754;2023-04-25T01:45:33;100499.13;;;7.10;100.00
28004;BME280;15330;51.234;6.754;2023-04-25T01:48:01;100505.38;;;7.18;100.00
28004;BME280;15330;51.234;6.754;2023-04-25T01:50:27;100506.41;;;7.08;100.00
28004;BME280;15330;51.234;6.754;2023-04-25T01:52:52;100515.34;;;7.16;100.00
28004;BME280;15330;51.234;6.754;2023-04-25T01:55:19;100513.38;;;7.18;100.00
28004;BME280;15330;51.234;6.754;2023-04-25T01:57:44;100517.69;;;7.19;100.00
28004;BME280;15330;51.234;6.754;2023-04-25T02:00:10;100519.47;;;7.28;100.00
28004;BME280;15330;51.234;6.754;2023-04-25T02:02:36;100517.50;;;7.30;100.00
28004;BME280;15330;51.234;6.754;2023-04-25T02:05:01;100523.03;;;7.19;100.00
28004;BME280;15330;51.234;6.754;2023-04-25T02:07:27;100519.84;;;7.16;100.00
28004;BME280;15330;51.234;6.754;2023-04-25T02:09:52;100525.31;;;7.14;100.00
28004;BME280;15330;51.234;6.754;2023-04-25T02:12:17;100524.63;;;7.30;100.00
28004;BME280;15330;51.234;6.754;2023-04-25T02:14:43;100533.53;;;7.21;100.00
28004;BME280;15330;51.234;6.754;2023-04-25T02:17:08;100525.16;;;7.16;100.00
28004;BME280;15330;51.234;6.754;2023-04-25T02:19:34;100531.56;;;7.23;100.00
28004;BME280;15330;51.234;6.754;2023-04-25T02:21:59;100529.72;;;7.23;100.00
28004;BME280;15330;51.234;6.754;2023-04-25T02:24:25;100522.44;;;7.25;100.00
28004;BME280;15330;51.234;6.754;2023-04-25T02:26:50;100514.25;;;7.36;100.00
28004;BME280;15330;51.234;6.754;2023-04-25T02:29:16;100516.31;;;7.43;100.00
28004;BME280;15330;51.234;6.754;2023-04-25T02:31:41;100528.16;;;7.48;100.00
28004;BME280;15330;51.234;6.754;2023-04-25T02:34:07;100526.94;;;7.43;100.00
28004;BME280;15330;51.234;6.754;2023-04-25T02:36:32;100522.91;;;7.38;100.00
28004;BME280;15330;51.234;6.754;2023-04-25T02:39:00;100529.91;;;7.40;100.00
28004;BME280;15330;51.234;6.754;2023-04-25T02:41:26;100525.13;;;7.43;100.00
28004;BME280;15330;51.234;6.754;2023-04-25T02:43:51;100521.00;;;7.31;100.00
28004;BME280;15330;51.234;6.754;2023-04-25T02:46:17;100516.03;;;7.18;100.00
28004;BME280;15330;51.234;6.754;2023-04-25T02:48:42;100522.84;;;7.03;100.00
28004;BME280;15330;51.234;6.754;2023-04-25T02:51:08;100526.84;;;7.07;100.00
28004;BME280;15330;51.234;6.754;2023-04-25T02:53:34;100515.00;;;7.02;100.00
28004;BME280;15330;51.234;6.754;2023-04-25T02:55:59;100522.66;;;7.14;100.00
28004;BME280;15330;51.234;6.754;2023-04-25T02:58:25;100520.63;;;7.26;100.00
28004;BME280;15330;51.234;6.754;2023-04-25T03:00:50;100518.63;;;7.28;100.00
28004;BME280;15330;51.234;6.754;2023-04-25T03:03:15;100515.19;;;7.18;100.00
28004;BME280;15330;51.234;6.754;2023-04-25T03:05:43;100523.22;;;7.35;100.00
28004;BME280;15330;51.234;6.754;2023-04-25T03:08:09;100507.84;;;7.29;100.00
28004;BME280;15330;51.234;6.754;2023-04-25T03:10:34;100513.78;;;7.23;100.00
28004;BME280;15330;51.234;6.754;2023-04-25T03:13:00;100525.34;;;7.32;100.00
28004;BME280;15330;51.234;6.754;2023-04-25T03:15:25;100525.00;;;7.17;100.00
28004;BME280;15330;51.234;6.754;2023-04-25T03:17:50;100529.09;;;7.12;100.00
28004;BME280;15330;51.234;6.754;2023-04-25T03:20:16;100526.81;;;7.17;100.00
28004;BME280;15330;51.234;6.754;2023-04-25T03:22:41;100533.75;;;7.00;100.00
28004;BME280;15330;51.234;6.754;2023-04-25T03:25:07;100534.56;;;7.10;100.00
28004;BME280;15330;51.234;6.754;2023-04-25T03:27:33;100534.56;;;7.10;100.00
28004;BME280;15330;51.234;6.754;2023-04-25T03:29:58;100535.53;;;7.09;100.00
28004;BME280;15330;51.234;6.754;2023-04-25T03:32:23;100532.63;;;7.03;100.00
28004;BME280;15330;51.234;6.754;2023-04-25T03:34:49;100529.56;;;6.97;100.00
28004;BME280;15330;51.234;6.754;2023-04-25T03:37:14;100536.50;;;7.08;100.00
28004;BME280;15330;51.234;6.754;2023-04-25T03:39:40;100536.03;;;6.95;100.00
28004;BME280;15330;51.234;6.754;2023-04-25T03:42:05;100533.16;;;7.06;100.00
28004;BME280;15330;51.234;6.754;2023-04-25T03:44:30;100535.81;;;7.16;100.00
28004;BME280;15330;51.234;6.754;2023-04-25T03:46:56;100538.59;;;7.14;100.00
28004;BME280;15330;51.234;6.754;2023-04-25T03:49:21;100541.31;;;7.05;100.00
28004;BME280;15330;51.234;6.754;2023-04-25T03:51:47;100544.97;;;7.04;100.00
28004;BME280;15330;51.234;6.754;2023-04-25T03:54:12;100538.47;;;7.06;100.00
28004;BME280;15330;51.234;6.754;2023-04-25T03:56:37;100541.34;;;6.95;100.00
28004;BME280;15330;51.234;6.754;2023-04-25T03:59:03;100542.28;;;7.04;100.00
28004;BME280;15330;51.234;6.754;2023-04-25T04:01:28;100548.19;;;6.97;100.00
28004;BME280;15330;51.234;6.754;2023-04-25T04:03:54;100550.50;;;6.83;100.00
28004;BME280;15330;51.234;6.754;2023-04-25T04:06:19;100550.19;;;6.95;100.00
28004;BME280;15330;51.234;6.754;2023-04-25T04:08:46;100558.72;;;6.89;100.00
28004;BME280;15330;51.234;6.754;2023-04-25T04:11:11;100555.81;;;7.10;100.00
28004;BME280;15330;51.234;6.754;2023-04-25T04:13:37;100563.00;;;7.27;100.00
28004;BME280;15330;51.234;6.754;2023-04-25T04:16:02;100560.28;;;7.47;100.00
28004;BME280;15330;51.234;6.754;2023-04-25T04:18:29;100561.59;;;7.33;100.00
28004;BME280;15330;51.234;6.754;2023-04-25T04:20:55;100562.81;;;7.11;100.00
28004;BME280;15330;51.234;6.754;2023-04-25T04:23:20;100568.34;;;7.27;100.00
28004;BME280;15330;51.234;6.754;2023-04-25T04:25:47;100561.88;;;7.30;100.00
28004;BME280;15330;51.234;6.754;2023-04-25T04:28:13;100558.94;;;7.33;100.00
28004;BME280;15330;51.234;6.754;2023-04-25T04:30:39;100562.44;;;7.33;100.00
28004;BME280;15330;51.234;6.754;2023-04-25T04:33:06;100563.06;;;7.18;100.00
28004;BME280;15330;51.234;6.754;2023-04-25T04:35:32;100574.44;;;7.10;100.00
28004;BME280;15330;51.234;6.754;2023-04-25T04:37:57;100562.41;;;7.16;100.00
28004;BME280;15330;51.234;6.754;2023-04-25T04:40:23;100566.00;;;6.87;100.00
28004;BME280;15330;51.234;6.754;2023-04-25T04:42:48;100577.91;;;7.20;100.00
28004;BME280;15330;51.234;6.754;2023-04-25T04:45:15;100575.22;;;7.48;100.00
28004;BME280;15330;51.234;6.754;2023-04-25T04:47:41;100581.06;;;7.33;100.00
28004;BME280;15330;51.234;6.754;2023-04-25T04:50:07;100587.63;;;7.84;100.00
28004;BME280;15330;51.234;6.754;2023-04-25T04:52:36;100587.53;;;7.76;100.00
28004;BME280;15330;51.234;6.754;2023-04-25T04:55:03;100583.75;;;7.79;100.00
28004;BME280;15330;51.234;6.754;2023-04-25T04:57:29;100589.44;;;8.01;100.00
28004;BME280;15330;51.234;6.754;2023-04-25T04:59:56;100602.34;;;7.61;100.00
28004;BME280;15330;51.234;6.754;2023-04-25T05:02:21;100599.75;;;7.69;100.00
28004;BME280;15330;51.234;6.754;2023-04-25T05:04:47;100603.25;;;8.32;100.00
28004;BME280;15330;51.234;6.754;2023-04-25T05:07:12;100614.38;;;7.83;100.00
28004;BME280;15330;51.234;6.754;2023-04-25T05:09:38;100613.81;;;7.89;100.00
28004;BME280;15330;51.234;6.754;2023-04-25T05:12:04;100620.13;;;7.33;100.00
28004;BME280;15330;51.234;6.754;2023-04-25T05:14:30;100625.97;;;7.09;100.00
28004;BME280;15330;51.234;6.754;2023-04-25T05:16:55;100619.78;;;7.18;100.00
28004;BME280;15330;51.234;6.754;2023-04-25T05:19:20;100626.19;;;7.25;100.00
28004;BME280;15330;51.234;6.754;2023-04-25T05:21:46;100631.66;;;7.51;100.00
28004;BME280;15330;51.234;6.754;2023-04-25T05:24:11;100637.78;;;7.34;100.00
28004;BME280;15330;51.234;6.754;2023-04-25T05:26:37;100631.28;;;7.46;100.00
28004;BME280;15330;51.234;6.754;2023-04-25T05:29:02;100641.19;;;7.26;100.00
28004;BME280;15330;51.234;6.754;2023-04-25T05:31:28;100636.28;;;7.22;100.00
28004;BME280;15330;51.234;6.754;2023-04-25T05:33:53;100639.75;;;7.32;100.00
28004;BME280;15330;51.234;6.754;2023-04-25T05:36:19;100640.00;;;7.38;100.00
28004;BME280;15330;51.234;6.754;2023-04-25T05:38:45;100642.66;;;7.38;100.00
28004;BME280;15330;51.234;6.754;2023-04-25T05:41:10;100634.13;;;7.62;100.00
28004;BME280;15330;51.234;6.754;2023-04-25T05:43:35;100647.09;;;7.75;100.00
28004;BME280;15330;51.234;6.754;2023-04-25T05:46:01;100652.06;;;7.60;100.00
28004;BME280;15330;51.234;6.754;2023-04-25T05:48:26;100647.28;;;7.91;100.00
28004;BME280;15330;51.234;6.754;2023-04-25T05:50:52;100646.09;;;8.57;100.00
28004;BME280;15330;51.234;6.754;2023-04-25T05:53:18;100647.53;;;8.95;100.00
28004;BME280;15330;51.234;6.754;2023-04-25T05:55:43;100645.91;;;9.28;96.25
28004;BME280;15330;51.234;6.754;2023-04-25T05:58:09;100654.75;;;9.28;96.85
28004;BME280;15330;51.234;6.754;2023-04-25T06:00:34;100661.06;;;9.53;95.69
28004;BME280;15330;51.234;6.754;2023-04-25T06:02:59;100668.28;;;9.69;95.46
28004;BME280;15330;51.234;6.754;2023-04-25T06:05:26;100655.66;;;9.45;95.55
28004;BME280;15330;51.234;6.754;2023-04-25T06:07:51;100662.91;;;9.61;93.85
28004;BME280;15330;51.234;6.754;2023-04-25T06:10:16;100662.22;;;9.25;95.83
28004;BME280;15330;51.234;6.754;2023-04-25T06:12:42;100666.34;;;9.87;93.29
28004;BME280;15330;51.234;6.754;2023-04-25T06:15:07;100669.72;;;9.21;92.01
28004;BME280;15330;51.234;6.754;2023-04-25T06:17:33;100667.97;;;9.38;92.60
28004;BME280;15330;51.234;6.754;2023-04-25T06:19:58;100663.88;;;9.85;92.54
28004;BME280;15330;51.234;6.754;2023-04-25T06:22:24;100680.63;;;10.12;90.99
28004;BME280;15330;51.234;6.754;2023-04-25T06:24:49;100687.47;;;9.64;90.16
28004;BME280;15330;51.234;6.754;2023-04-25T06:27:15;100682.19;;;9.46;90.89
28004;BME280;15330;51.234;6.754;2023-04-25T06:29:40;100685.81;;;9.63;88.50
28004;BME280;15330;51.234;6.754;2023-04-25T06:32:05;100681.31;;;9.38;89.89
28004;BME280;15330;51.234;6.754;2023-04-25T06:34:31;100689.03;;;9.75;89.11
28004;BME280;15330;51.234;6.754;2023-04-25T06:36:56;100679.81;;;9.69;88.04
28004;BME280;15330;51.234;6.754;2023-04-25T06:39:22;100689.22;;;9.47;89.87
28004;BME280;15330;51.234;6.754;2023-04-25T06:41:48;100682.72;;;10.34;87.57
28004;BME280;15330;51.234;6.754;2023-04-25T06:44:14;100688.22;;;10.33;85.71
28004;BME280;15330;51.234;6.754;2023-04-25T06:46:40;100701.91;;;10.29;86.65
28004;BME280;15330;51.234;6.754;2023-04-25T06:49:05;100706.63;;;9.93;87.05
28004;BME280;15330;51.234;6.754;2023-04-25T06:51:31;100708.00;;;9.64;86.40
28004;BME280;15330;51.234;6.754;2023-04-25T06:53:56;100706.31;;;9.54;86.38
28004;BME280;15330;51.234;6.754;2023-04-25T06:56:22;100704.63;;;10.38;85.70
28004;BME280;15330;51.234;6.754;2023-04-25T06:58:48;100705.25;;;10.23;83.88
28004;BME280;15330;51.234;6.754;2023-04-25T07:01:13;100714.00;;;9.66;86.83
28004;BME280;15330;51.234;6.754;2023-04-25T07:03:39;100712.53;;;10.13;86.14
28004;BME280;15330;51.234;6.754;2023-04-25T07:06:05;100712.31;;;11.14;82.23
28004;BME280;15330;51.234;6.754;2023-04-25T07:08:30;100712.88;;;11.64;84.66
28004;BME280;15330;51.234;6.754;2023-04-25T07:10:55;100713.16;;;11.30;79.82
28004;BME280;15330;51.234;6.754;2023-04-25T07:13:21;100724.50;;;11.32;81.06
28004;BME280;15330;51.234;6.754;2023-04-25T07:15:46;100716.28;;;11.50;80.82
28004;BME280;15330;51.234;6.754;2023-04-25T07:18:13;100720.97;;;11.32;80.44
28004;BME280;15330;51.234;6.754;2023-04-25T07:20:38;100723.25;;;12.45;78.48
28004;BME280;15330;51.234;6.754;2023-04-25T07:23:04;100724.69;;;12.25;80.28
28004;BME280;15330;51.234;6.754;2023-04-25T07:25:29;100736.56;;;12.00;82.37
28004;BME280;15330;51.234;6.754;2023-04-25T07:27:55;100728.56;;;11.04;78.11
28004;BME280;15330;51.234;6.754;2023-04-25T07:30:21;100740.91;;;10.64;78.83
28004;BME280;15330;51.234;6.754;2023-04-25T07:32:47;100737.13;;;9.75;82.04
28004;BME280;15330;51.234;6.754;2023-04-25T07:35:12;100725.16;;;9.53;83.87
28004;BME280;15330;51.234;6.754;2023-04-25T07:37:37;100742.09;;;9.70;84.10
28004;BME280;15330;51.234;6.754;2023-04-25T07:40:07;100737.75;;;9.77;83.18
28004;BME280;15330;51.234;6.754;2023-04-25T07:42:34;100734.06;;;9.70;82.86
28004;BME280;15330;51.234;6.754;2023-04-25T07:45:00;100740.25;;;10.04;83.64
28004;BME280;15330;51.234;6.754;2023-04-25T07:47:26;100748.88;;;9.98;83.69
28004;BME280;15330;51.234;6.754;2023-04-25T07:49:51;100753.38;;;9.98;84.03
28004;BME280;15330;51.234;6.754;2023-04-25T07:52:16;100750.88;;;9.36;85.79
28004;BME280;15330;51.234;6.754;2023-04-25T07:54:42;100757.25;;;8.92;84.93
28004;BME280;15330;51.234;6.754;2023-04-25T07:57:07;100756.41;;;8.73;86.69
28004;BME280;15330;51.234;6.754;2023-04-25T07:59:33;100759.47;;;9.74;85.56
28004;BME280;15330;51.234;6.754;2023-04-25T08:01:58;100751.63;;;10.81;82.78
28004;BME280;15330;51.234;6.754;2023-04-25T08:04:24;100761.09;;;11.64;79.49
28004;BME280;15330;51.234;6.754;2023-04-25T08:06:50;100756.00;;;12.64;74.59
28004;BME280;15330;51.234;6.754;2023-04-25T08:09:16;100760.38;;;12.57;69.26
28004;BME280;15330;51.234;6.754;2023-04-25T08:11:42;100774.19;;;12.54;70.96
28004;BME280;15330;51.234;6.754;2023-04-25T08:14:07;100776.00;;;11.83;69.96
28004;BME280;15330;51.234;6.754;2023-04-25T08:16:33;100782.50;;;10.43;72.60
28004;BME280;15330;51.234;6.754;2023-04-25T08:18:59;100782.25;;;10.78;72.42
28004;BME280;15330;51.234;6.754;2023-04-25T08:21:25;100783.78;;;10.30;74.44
28004;BME280;15330;51.234;6.754;2023-04-25T08:23:52;100794.69;;;10.37;74.26
28004;BME280;15330;51.234;6.754;2023-04-25T08:26:17;100789.50;;;12.37;71.96
28004;BME280;15330;51.234;6.754;2023-04-25T08:28:43;100799.53;;;12.12;70.85
28004;BME280;15330;51.234;6.754;2023-04-25T08:31:08;100806.00;;;10.97;71.17
28004;BME280;15330;51.234;6.754;2023-04-25T08:33:33;100805.34;;;11.28;72.27
28004;BME280;15330;51.234;6.754;2023-04-25T08:35:59;100799.66;;;11.23;70.02
28004;BME280;15330;51.234;6.754;2023-04-25T08:38:24;100813.69;;;11.65;71.40
28004;BME280;15330;51.234;6.754;2023-04-25T08:40:50;100809.47;;;12.96;67.06
28004;BME280;15330;51.234;6.754;2023-04-25T08:43:19;100813.03;;;13.72;66.99
28004;BME280;15330;51.234;6.754;2023-04-25T08:45:45;100807.13;;;14.20;63.15
28004;BME280;15330;51.234;6.754;2023-04-25T08:48:15;100808.78;;;13.77;62.25
28004;BME280;15330;51.234;6.754;2023-04-25T08:50:54;100814.56;;;13.51;61.13
28004;BME280;15330;51.234;6.754;2023-04-25T08:53:25;100822.34;;;13.46;60.89
28004;BME280;15330;51.234;6.754;2023-04-25T08:55:55;100824.13;;;13.16;57.60
28004;BME280;15330;51.234;6.754;2023-04-25T08:58:22;100825.09;;;11.35;60.58
28004;BME280;15330;51.234;6.754;2023-04-25T09:00:48;100828.91;;;14.25;57.67
28004;BME280;15330;51.234;6.754;2023-04-25T09:03:15;100825.31;;;14.18;54.35
28004;BME280;15330;51.234;6.754;2023-04-25T09:05:41;100838.75;;;13.51;56.86
28004;BME280;15330;51.234;6.754;2023-04-25T09:08:07;100827.69;;;13.84;58.86
28004;BME280;15330;51.234;6.754;2023-04-25T09:10:33;100839.06;;;13.11;56.32
28004;BME280;15330;51.234;6.754;2023-04-25T09:13:03;100846.44;;;13.77;58.06
28004;BME280;15330;51.234;6.754;2023-04-25T09:15:32;100848.13;;;12.09;56.90
28004;BME280;15330;51.234;6.754;2023-04-25T09:17:59;100850.38;;;12.36;59.27
28004;BME280;15330;51.234;6.754;2023-04-25T09:20:25;100853.22;;;11.71;59.51
28004;BME280;15330;51.234;6.754;2023-04-25T09:23:10;100853.56;;;11.36;61.11
28004;BME280;15330;51.234;6.754;2023-04-25T09:25:36;100861.91;;;11.65;61.31
28004;BME280;15330;51.234;6.754;2023-04-25T09:28:06;100857.09;;;12.71;62.25
28004;BME280;15330;51.234;6.754;2023-04-25T09:30:33;100860.56;;;13.71;57.84
28004;BME280;15330;51.234;6.754;2023-04-25T09:33:06;100866.03;;;14.45;56.05
28004;BME280;15330;51.234;6.754;2023-04-25T09:35:53;100857.50;;;14.12;56.66
28004;BME280;15330;51.234;6.754;2023-04-25T09:38:20;100864.38;;;13.62;54.36
28004;BME280;15330;51.234;6.754;2023-04-25T09:40:48;100855.44;;;13.47;57.18
28004;BME280;15330;51.234;6.754;2023-04-25T09:43:25;100868.25;;;10.99;59.48
28004;BME280;15330;51.234;6.754;2023-04-25T09:45:53;100872.66;;;11.41;60.09
28004;BME280;15330;51.234;6.754;2023-04-25T09:48:20;100873.13;;;11.69;60.52
28004;BME280;15330;51.234;6.754;2023-04-25T09:53:34;100879.03;;;11.81;56.85
28004;BME280;15330;51.234;6.754;2023-04-25T09:56:03;100877.28;;;10.98;56.82
28004;BME280;15330;51.234;6.754;2023-04-25T09:58:30;100886.75;;;10.69;58.35
28004;BME280;15330;51.234;6.754;2023-04-25T10:00:59;100886.38;;;11.54;57.55
28004;BME280;15330;51.234;6.754;2023-04-25T10:03:25;100889.03;;;11.38;58.09
28004;BME280;15330;51.234;6.754;2023-04-25T10:05:52;100896.41;;;11.28;57.36
28004;BME280;15330;51.234;6.754;2023-04-25T10:08:19;100906.41;;;11.10;56.49
28004;BME280;15330;51.234;6.754;2023-04-25T10:10:46;100905.06;;;10.97;57.50
28004;BME280;15330;51.234;6.754;2023-04-25T10:13:13;100901.16;;;10.84;58.48
28004;BME280;15330;51.234;6.754;2023-04-25T10:15:40;100923.03;;;11.46;58.67
28004;BME280;15330;51.234;6.754;2023-04-25T10:18:07;100910.63;;;11.45;56.74
28004;BME280;15330;51.234;6.754;2023-04-25T10:20:32;100913.38;;;10.44;59.64
28004;BME280;15330;51.234;6.754;2023-04-25T10:23:06;100924.34;;;10.67;60.32
28004;BME280;15330;51.234;6.754;2023-04-25T10:25:33;100912.09;;;10.22;61.37
28004;BME280;15330;51.234;6.754;2023-04-25T10:27:59;100914.53;;;10.42;59.73
28004;BME280;15330;51.234;6.754;2023-04-25T10:30:25;100923.34;;;10.68;62.18
28004;BME280;15330;51.234;6.754;2023-04-25T10:32:54;100926.44;;;10.89;60.41
28004;BME280;15330;51.234;6.754;2023-04-25T10:35:30;100923.34;;;10.68;58.27
28004;BME280;15330;51.234;6.754;2023-04-25T10:38:16;100930.44;;;10.85;58.02
28004;BME280;15330;51.234;6.754;2023-04-25T10:40:41;100930.53;;;11.10;58.50
28004;BME280;15330;51.234;6.754;2023-04-25T10:43:41;100928.53;;;11.28;56.90
28004;BME280;15330;51.234;6.754;2023-04-25T10:48:50;100925.19;;;11.26;52.34
28004;BME280;15330;51.234;6.754;2023-04-25T10:51:20;100923.50;;;11.25;53.43
28004;BME280;15330;51.234;6.754;2023-04-25T10:53:47;100922.38;;;11.84;53.30
28004;BME280;15330;51.234;6.754;2023-04-25T10:56:23;100927.78;;;12.47;50.30
28004;BME280;15330;51.234;6.754;2023-04-25T10:58:49;100913.06;;;13.67;51.86
28004;BME280;15330;51.234;6.754;2023-04-25T11:01:20;100912.19;;;12.90;47.60
28004;BME280;15330;51.234;6.754;2023-04-25T11:03:46;100911.78;;;12.23;46.77
28004;BME280;15330;51.234;6.754;2023-04-25T11:06:45;100912.47;;;11.36;49.97
28004;BME280;15330;51.234;6.754;2023-04-25T11:09:12;100922.25;;;12.88;48.40
28004;BME280;15330;51.234;6.754;2023-04-25T11:11:38;100921.66;;;13.40;46.79
28004;BME280;15330;51.234;6.754;2023-04-25T11:14:04;100924.94;;;12.88;48.42
28004;BME280;15330;51.234;6.754;2023-04-25T11:16:29;100919.34;;;13.37;49.63
28004;BME280;15330;51.234;6.754;2023-04-25T11:18:57;100923.63;;;13.46;48.43
28004;BME280;15330;51.234;6.754;2023-04-25T11:21:23;100932.53;;;13.46;48.36
28004;BME280;15330;51.234;6.754;2023-04-25T11:23:48;100923.06;;;13.50;49.01
28004;BME280;15330;51.234;6.754;2023-04-25T11:26:14;100930.06;;;12.75;49.21
28004;BME280;15330;51.234;6.754;2023-04-25T11:28:40;100924.25;;;12.94;48.61
28004;BME280;15330;51.234;6.754;2023-04-25T11:31:05;100918.34;;;12.04;48.11
28004;BME280;15330;51.234;6.754;2023-04-25T11:33:31;100927.63;;;12.49;49.95
28004;BME280;15330;51.234;6.754;2023-04-25T11:35:57;100925.19;;;13.17;48.19
28004;BME280;15330;51.234;6.754;2023-04-25T11:38:24;100918.25;;;13.46;50.08
28004;BME280;15330;51.234;6.754;2023-04-25T11:40:53;100918.25;;;13.23;50.17
28004;BME280;15330;51.234;6.754;2023-04-25T11:43:22;100925.59;;;12.59;49.79
28004;BME280;15330;51.234;6.754;2023-04-25T11:45:49;100927.28;;;12.91;50.69
28004;BME280;15330;51.234;6.754;2023-04-25T11:48:15;100913.69;;;12.93;49.66
28004;BME280;15330;51.234;6.754;2023-04-25T11:50:41;100920.31;;;13.81;49.03
28004;BME280;15330;51.234;6.754;2023-04-25T11:53:06;100911.41;;;13.81;48.74
28004;BME280;15330;51.234;6.754;2023-04-25T11:55:33;100917.75;;;14.03;46.48
28004;BME280;15330;51.234;6.754;2023-04-25T11:58:00;100928.31;;;13.89;47.94
28004;BME280;15330;51.234;6.754;2023-04-25T12:00:26;100920.91;;;12.92;48.61
28004;BME280;15330;51.234;6.754;2023-04-25T12:02:56;100934.38;;;13.46;47.92
28004;BME280;15330;51.234;6.754;2023-04-25T12:05:25;100927.16;;;13.69;47.89
28004;BME280;15330;51.234;6.754;2023-04-25T12:07:51;100925.34;;;13.84;49.27
28004;BME280;15330;51.234;6.754;2023-04-25T12:10:18;100943.19;;;13.01;50.53
28004;BME280;15330;51.234;6.754;2023-04-25T12:12:45;100944.38;;;12.59;51.80
28004;BME280;15330;51.234;6.754;2023-04-25T12:15:15;100950.28;;;12.55;52.15
28004;BME280;15330;51.234;6.754;2023-04-25T12:17:45;100945.47;;;12.34;52.22
28004;BME280;15330;51.234;6.754;2023-04-25T12:20:24;100960.03;;;11.74;53.61
28004;BME280;15330;51.234;6.754;2023-04-25T12:22:51;100966.72;;;11.54;59.24
28004;BME280;15330;51.234;6.754;2023-04-25T12:28:17;100984.91;;;9.81;71.88
28004;BME280;15330;51.234;6.754;2023-04-25T12:33:30;100983.34;;;9.52;75.84
28004;BME280;15330;51.234;6.754;2023-04-25T12:35:56;100988.81;;;9.33;76.38
28004;BME280;15330;51.234;6.754;2023-04-25T12:38:26;100986.66;;;9.19;77.28
28004;BME280;15330;51.234;6.754;2023-04-25T12:40:53;100992.91;;;9.99;75.03
28004;BME280;15330;51.234;6.754;2023-04-25T12:43:19;100987.66;;;9.89;73.74
28004;BME280;15330;51.234;6.754;2023-04-25T12:45:47;100982.72;;;11.14;70.28
28004;BME280;15330;51.234;6.754;2023-04-25T12:48:12;100975.16;;;12.00;67.79
28004;BME280;15330;51.234;6.754;2023-04-25T12:50:38;100974.91;;;11.28;67.69
28004;BME280;15330;51.234;6.754;2023-04-25T12:53:03;100980.53;;;12.08;66.94
28004;BME280;15330;51.234;6.754;2023-04-25T12:55:29;100974.63;;;12.45;66.82
28004;BME280;15330;51.234;6.754;2023-04-25T12:57:54;100978.16;;;12.29;64.51